Briefing drone pour Vaulx-en-velin

Rechercher une autre localisation

Conditions de vol :


Nous sommes le : Jeudi 25 février 2021
Il est 05:19 UTC (06:20 LT)

Lever de soleil : 05:58 UTC (06:58 LT)
Coucher de soleil : 17:47 UTC (18:47 LT)

Météo

L'essentiel des conditions de vol

VIGILANCE MÉTÉO FRANCE - Rhône (69)
Pas de vigilances particulieres
CARTE TEMSI
CARTES DES FRONTS
METAR de LFLL
LFLL 250500Z 13013KT CAVOK 10/03 Q1029 NOSIG

Date d'émission: 25/02/2021
Heure d'émission: 05:00 UTC
Vent: 130° pour 13 KT (24 km/h)
Visibilité horizontale: > 10 km
Plafond : Plafond et visibilité OK (CAVOK)
Température: 10 °C
Point de rosée: 3 °C
Humidité: 62%
Pression (QNH): 1029 hPa
Conditions: Pas de changement dans les 2 heures (NOSIG)
TAF de LFLL
LFLL 241700Z 2418/2524 18008KT CAVOK

Conditions prévues :

Heure d'émission : Bulletin éffectué le 24 à 18:00 UTC
Prévision : Valide du 24 a 18:00 UTC au 25 a 23:59 UTC
Vent : 180° pour 8 KT (15 km/h)
Visibilité : > 10 km
WEBCAM POUR VAULX-EN-VELIN

Réglementation

Voler en sécurité

CARTES AERONAUTIQUE 1/500.000
CARTES VAC (LFLL)
SUP AIP




Chargement des AIP...
NOTAM (VAULX-EN-VELIN + Terrain à proximité / FIR )




Chargement des NOTAMS...
CONTACT PREFECTURE 69


Avertissement : Les données mises à disposition sont indicatives. Oxygène Drone ne pourra être tenu responsable de dégâts causés aux biens et aux personnes.